sensor_id;sensor_type;location;lat;lon;timestamp;temperature;humidity
56374;DHT22;58212;47.034;7.376;2023-05-01T00:00:20;12.80;99.90
56374;DHT22;58212;47.034;7.376;2023-05-01T00:02:51;12.80;99.90
56374;DHT22;58212;47.034;7.376;2023-05-01T00:05:19;12.80;99.90
56374;DHT22;58212;47.034;7.376;2023-05-01T00:07:46;12.70;99.90
56374;DHT22;58212;47.034;7.376;2023-05-01T00:10:38;12.80;99.90
56374;DHT22;58212;47.034;7.376;2023-05-01T00:13:05;12.70;99.90
56374;DHT22;58212;47.034;7.376;2023-05-01T00:15:36;12.80;99.90
56374;DHT22;58212;47.034;7.376;2023-05-01T00:18:06;12.50;99.90
56374;DHT22;58212;47.034;7.376;2023-05-01T00:20:33;12.50;99.90
56374;DHT22;58212;47.034;7.376;2023-05-01T00:23:00;12.50;99.90
56374;DHT22;58212;47.034;7.376;2023-05-01T00:25:28;12.70;99.90
56374;DHT22;58212;47.034;7.376;2023-05-01T00:27:56;12.60;99.90
56374;DHT22;58212;47.034;7.376;2023-05-01T00:30:24;12.50;99.90
56374;DHT22;58212;47.034;7.376;2023-05-01T00:32:53;12.50;99.90
56374;DHT22;58212;47.034;7.376;2023-05-01T00:35:21;12.50;99.90
56374;DHT22;58212;47.034;7.376;2023-05-01T00:37:48;12.50;99.90
56374;DHT22;58212;47.034;7.376;2023-05-01T00:40:15;12.50;99.90
56374;DHT22;58212;47.034;7.376;2023-05-01T00:42:43;12.60;99.90
56374;DHT22;58212;47.034;7.376;2023-05-01T00:45:10;12.60;99.90
56374;DHT22;58212;47.034;7.376;2023-05-01T00:47:39;12.60;99.90
56374;DHT22;58212;47.034;7.376;2023-05-01T00:50:08;12.50;99.90
56374;DHT22;58212;47.034;7.376;2023-05-01T00:52:36;12.40;99.90
56374;DHT22;58212;47.034;7.376;2023-05-01T00:55:03;12.40;99.90
56374;DHT22;58212;47.034;7.376;2023-05-01T00:57:31;12.30;99.90
56374;DHT22;58212;47.034;7.376;2023-05-01T00:59:58;12.40;99.90
56374;DHT22;58212;47.034;7.376;2023-05-01T01:02:25;12.40;99.90
56374;DHT22;58212;47.034;7.376;2023-05-01T01:04:52;12.50;99.90
56374;DHT22;58212;47.034;7.376;2023-05-01T01:07:27;12.60;99.90
56374;DHT22;58212;47.034;7.376;2023-05-01T01:10:02;12.40;99.90
56374;DHT22;58212;47.034;7.376;2023-05-01T01:12:36;12.40;99.90
56374;DHT22;58212;47.034;7.376;2023-05-01T01:15:10;12.40;99.90
56374;DHT22;58212;47.034;7.376;2023-05-01T01:17:44;12.40;99.90
56374;DHT22;58212;47.034;7.376;2023-05-01T01:20:30;12.40;99.90
56374;DHT22;58212;47.034;7.376;2023-05-01T01:23:28;12.40;99.90
56374;DHT22;58212;47.034;7.376;2023-05-01T01:29:39;12.60;99.90
56374;DHT22;58212;47.034;7.376;2023-05-01T01:35:14;12.40;99.90
56374;DHT22;58212;47.034;7.376;2023-05-01T01:37:50;12.30;99.90
56374;DHT22;58212;47.034;7.376;2023-05-01T01:40:23;12.30;99.90
56374;DHT22;58212;47.034;7.376;2023-05-01T01:42:54;12.20;99.90
56374;DHT22;58212;47.034;7.376;2023-05-01T01:45:27;12.20;99.90
56374;DHT22;58212;47.034;7.376;2023-05-01T01:47:56;12.20;99.90
56374;DHT22;58212;47.034;7.376;2023-05-01T01:50:26;12.20;99.90
56374;DHT22;58212;47.034;7.376;2023-05-01T01:52:57;12.20;99.90
56374;DHT22;58212;47.034;7.376;2023-05-01T01:55:28;12.20;99.90
56374;DHT22;58212;47.034;7.376;2023-05-01T01:57:58;12.10;99.90
56374;DHT22;58212;47.034;7.376;2023-05-01T02:00:26;12.20;99.90
56374;DHT22;58212;47.034;7.376;2023-05-01T02:02:55;12.20;99.90
56374;DHT22;58212;47.034;7.376;2023-05-01T02:05:26;12.20;99.90
56374;DHT22;58212;47.034;7.376;2023-05-01T02:07:55;12.20;99.90
56374;DHT22;58212;47.034;7.376;2023-05-01T02:10:23;12.30;99.90
56374;DHT22;58212;47.034;7.376;2023-05-01T02:12:55;12.40;99.90
56374;DHT22;58212;47.034;7.376;2023-05-01T02:15:24;12.20;99.90
56374;DHT22;58212;47.034;7.376;2023-05-01T02:17:53;12.20;99.90
56374;DHT22;58212;47.034;7.376;2023-05-01T02:20:21;12.20;99.90
56374;DHT22;58212;47.034;7.376;2023-05-01T02:22:50;12.30;99.90
56374;DHT22;58212;47.034;7.376;2023-05-01T02:25:18;12.30;99.90
56374;DHT22;58212;47.034;7.376;2023-05-01T02:27:51;12.30;99.90
56374;DHT22;58212;47.034;7.376;2023-05-01T02:30:19;12.30;99.90
56374;DHT22;58212;47.034;7.376;2023-05-01T02:32:47;12.40;99.90
56374;DHT22;58212;47.034;7.376;2023-05-01T02:35:14;12.40;99.90
56374;DHT22;58212;47.034;7.376;2023-05-01T02:37:42;12.40;99.90
56374;DHT22;58212;47.034;7.376;2023-05-01T02:40:12;12.30;99.90
56374;DHT22;58212;47.034;7.376;2023-05-01T02:42:41;12.10;99.90
56374;DHT22;58212;47.034;7.376;2023-05-01T02:45:13;12.20;99.90
56374;DHT22;58212;47.034;7.376;2023-05-01T02:47:45;12.10;99.90
56374;DHT22;58212;47.034;7.376;2023-05-01T02:50:14;12.10;99.90
56374;DHT22;58212;47.034;7.376;2023-05-01T02:52:43;12.20;99.90
56374;DHT22;58212;47.034;7.376;2023-05-01T02:55:38;12.10;99.90
56374;DHT22;58212;47.034;7.376;2023-05-01T02:58:06;11.90;99.90
56374;DHT22;58212;47.034;7.376;2023-05-01T03:00:33;12.10;99.90
56374;DHT22;58212;47.034;7.376;2023-05-01T03:06:44;12.10;99.90
56374;DHT22;58212;47.034;7.376;2023-05-01T03:09:11;12.00;99.90
56374;DHT22;58212;47.034;7.376;2023-05-01T03:11:39;12.00;99.90
56374;DHT22;58212;47.034;7.376;2023-05-01T03:14:07;12.00;99.90
56374;DHT22;58212;47.034;7.376;2023-05-01T03:16:35;12.00;99.90
56374;DHT22;58212;47.034;7.376;2023-05-01T03:19:04;12.10;99.90
56374;DHT22;58212;47.034;7.376;2023-05-01T03:21:31;12.20;99.90
56374;DHT22;58212;47.034;7.376;2023-05-01T03:24:00;12.10;99.90
56374;DHT22;58212;47.034;7.376;2023-05-01T03:26:27;12.00;99.90
56374;DHT22;58212;47.034;7.376;2023-05-01T03:28:56;12.10;99.90
56374;DHT22;58212;47.034;7.376;2023-05-01T03:31:26;12.10;99.90
56374;DHT22;58212;47.034;7.376;2023-05-01T03:33:57;12.20;99.90
56374;DHT22;58212;47.034;7.376;2023-05-01T03:36:24;12.10;99.90
56374;DHT22;58212;47.034;7.376;2023-05-01T03:38:53;12.10;99.90
56374;DHT22;58212;47.034;7.376;2023-05-01T03:41:39;12.20;99.90
56374;DHT22;58212;47.034;7.376;2023-05-01T03:44:15;12.10;99.90
56374;DHT22;58212;47.034;7.376;2023-05-01T03:46:46;12.10;99.90
56374;DHT22;58212;47.034;7.376;2023-05-01T03:49:19;12.00;99.90
56374;DHT22;58212;47.034;7.376;2023-05-01T03:51:47;12.20;99.90
56374;DHT22;58212;47.034;7.376;2023-05-01T03:54:14;12.20;99.90
56374;DHT22;58212;47.034;7.376;2023-05-01T03:56:56;12.30;99.90
56374;DHT22;58212;47.034;7.376;2023-05-01T03:59:27;12.20;99.90
56374;DHT22;58212;47.034;7.376;2023-05-01T04:01:55;12.20;99.90
56374;DHT22;58212;47.034;7.376;2023-05-01T04:04:25;12.30;99.90
56374;DHT22;58212;47.034;7.376;2023-05-01T04:06:56;12.20;99.90
56374;DHT22;58212;47.034;7.376;2023-05-01T04:09:23;12.20;99.90
56374;DHT22;58212;47.034;7.376;2023-05-01T04:11:50;12.20;99.90
56374;DHT22;58212;47.034;7.376;2023-05-01T04:14:17;12.20;99.90
56374;DHT22;58212;47.034;7.376;2023-05-01T04:16:47;12.30;99.90
56374;DHT22;58212;47.034;7.376;2023-05-01T04:19:14;12.30;99.90
56374;DHT22;58212;47.034;7.376;2023-05-01T04:21:45;12.30;99.90
56374;DHT22;58212;47.034;7.376;2023-05-01T04:24:12;12.30;99.90
56374;DHT22;58212;47.034;7.376;2023-05-01T04:26:41;12.20;99.90
56374;DHT22;58212;47.034;7.376;2023-05-01T04:29:09;12.20;99.90
56374;DHT22;58212;47.034;7.376;2023-05-01T04:31:36;12.30;99.90
56374;DHT22;58212;47.034;7.376;2023-05-01T04:34:06;12.20;99.90
56374;DHT22;58212;47.034;7.376;2023-05-01T04:36:35;12.30;99.90
56374;DHT22;58212;47.034;7.376;2023-05-01T04:39:03;12.30;99.90
56374;DHT22;58212;47.034;7.376;2023-05-01T04:41:31;12.20;99.90
56374;DHT22;58212;47.034;7.376;2023-05-01T04:43:59;12.20;99.90
56374;DHT22;58212;47.034;7.376;2023-05-01T04:46:26;12.30;99.90
56374;DHT22;58212;47.034;7.376;2023-05-01T04:48:53;12.30;99.90
56374;DHT22;58212;47.034;7.376;2023-05-01T04:51:21;12.30;99.90
56374;DHT22;58212;47.034;7.376;2023-05-01T04:53:50;12.40;99.90
56374;DHT22;58212;47.034;7.376;2023-05-01T04:56:24;12.30;99.90
56374;DHT22;58212;47.034;7.376;2023-05-01T04:58:56;12.40;99.90
56374;DHT22;58212;47.034;7.376;2023-05-01T05:01:25;12.40;99.90
56374;DHT22;58212;47.034;7.376;2023-05-01T05:03:53;12.40;99.90
56374;DHT22;58212;47.034;7.376;2023-05-01T05:06:22;12.40;99.90
56374;DHT22;58212;47.034;7.376;2023-05-01T05:08:49;12.30;99.90
56374;DHT22;58212;47.034;7.376;2023-05-01T05:11:41;12.30;99.90
56374;DHT22;58212;47.034;7.376;2023-05-01T05:14:13;12.20;99.90
56374;DHT22;58212;47.034;7.376;2023-05-01T05:16:40;12.30;99.90
56374;DHT22;58212;47.034;7.376;2023-05-01T05:19:08;12.30;99.90
56374;DHT22;58212;47.034;7.376;2023-05-01T05:21:42;12.30;99.90
56374;DHT22;58212;47.034;7.376;2023-05-01T05:24:09;12.20;99.90
56374;DHT22;58212;47.034;7.376;2023-05-01T05:26:36;12.30;99.90
56374;DHT22;58212;47.034;7.376;2023-05-01T05:29:03;12.20;99.90
56374;DHT22;58212;47.034;7.376;2023-05-01T05:31:34;12.10;99.90
56374;DHT22;58212;47.034;7.376;2023-05-01T05:34:01;12.30;99.90
56374;DHT22;58212;47.034;7.376;2023-05-01T05:36:29;12.30;99.90
56374;DHT22;58212;47.034;7.376;2023-05-01T05:38:58;12.20;99.90
56374;DHT22;58212;47.034;7.376;2023-05-01T05:41:25;12.20;99.90
56374;DHT22;58212;47.034;7.376;2023-05-01T05:43:56;12.10;99.90
56374;DHT22;58212;47.034;7.376;2023-05-01T05:46:24;12.10;99.90
56374;DHT22;58212;47.034;7.376;2023-05-01T05:48:51;12.20;99.90
56374;DHT22;58212;47.034;7.376;2023-05-01T05:51:43;12.30;99.90
56374;DHT22;58212;47.034;7.376;2023-05-01T05:54:13;12.30;99.90
56374;DHT22;58212;47.034;7.376;2023-05-01T05:56:39;12.20;99.90
56374;DHT22;58212;47.034;7.376;2023-05-01T05:59:09;12.20;99.90
56374;DHT22;58212;47.034;7.376;2023-05-01T06:01:36;12.40;99.90
56374;DHT22;58212;47.034;7.376;2023-05-01T06:04:04;12.30;99.90
56374;DHT22;58212;47.034;7.376;2023-05-01T06:06:36;12.20;99.90
56374;DHT22;58212;47.034;7.376;2023-05-01T06:09:05;12.30;99.90
56374;DHT22;58212;47.034;7.376;2023-05-01T06:11:35;12.20;99.90
56374;DHT22;58212;47.034;7.376;2023-05-01T06:14:02;12.20;99.90
56374;DHT22;58212;47.034;7.376;2023-05-01T06:16:30;12.30;99.90
56374;DHT22;58212;47.034;7.376;2023-05-01T06:18:59;12.20;99.90
56374;DHT22;58212;47.034;7.376;2023-05-01T06:21:26;12.30;99.90
56374;DHT22;58212;47.034;7.376;2023-05-01T06:23:55;12.20;99.90
56374;DHT22;58212;47.034;7.376;2023-05-01T06:26:25;12.30;99.90
56374;DHT22;58212;47.034;7.376;2023-05-01T06:28:56;12.20;99.90
56374;DHT22;58212;47.034;7.376;2023-05-01T06:31:27;12.20;99.90
56374;DHT22;58212;47.034;7.376;2023-05-01T06:33:56;12.30;99.90
56374;DHT22;58212;47.034;7.376;2023-05-01T06:36:30;12.30;99.90
56374;DHT22;58212;47.034;7.376;2023-05-01T06:38:57;12.30;99.90
56374;DHT22;58212;47.034;7.376;2023-05-01T06:41:24;12.40;99.90
56374;DHT22;58212;47.034;7.376;2023-05-01T06:43:52;12.40;99.90
56374;DHT22;58212;47.034;7.376;2023-05-01T06:46:21;12.30;99.90
56374;DHT22;58212;47.034;7.376;2023-05-01T06:48:47;12.20;99.90
56374;DHT22;58212;47.034;7.376;2023-05-01T06:51:15;12.00;99.90
56374;DHT22;58212;47.034;7.376;2023-05-01T06:53:44;11.90;99.90
56374;DHT22;58212;47.034;7.376;2023-05-01T06:56:12;12.00;99.90
56374;DHT22;58212;47.034;7.376;2023-05-01T06:58:40;11.90;99.90
56374;DHT22;58212;47.034;7.376;2023-05-01T07:01:07;12.00;99.90
56374;DHT22;58212;47.034;7.376;2023-05-01T07:03:37;12.00;99.90
56374;DHT22;58212;47.034;7.376;2023-05-01T07:06:04;12.10;99.90
56374;DHT22;58212;47.034;7.376;2023-05-01T07:08:31;11.90;99.90
56374;DHT22;58212;47.034;7.376;2023-05-01T07:10:58;11.90;99.90
56374;DHT22;58212;47.034;7.376;2023-05-01T07:13:25;11.80;99.90
56374;DHT22;58212;47.034;7.376;2023-05-01T07:15:52;11.90;99.90
56374;DHT22;58212;47.034;7.376;2023-05-01T07:18:20;12.00;99.90
56374;DHT22;58212;47.034;7.376;2023-05-01T07:20:50;12.00;99.90
56374;DHT22;58212;47.034;7.376;2023-05-01T07:23:17;12.10;99.90
56374;DHT22;58212;47.034;7.376;2023-05-01T07:25:44;12.10;99.90
56374;DHT22;58212;47.034;7.376;2023-05-01T07:28:12;12.10;99.90
56374;DHT22;58212;47.034;7.376;2023-05-01T07:30:39;12.20;99.90
56374;DHT22;58212;47.034;7.376;2023-05-01T07:33:06;12.30;99.90
56374;DHT22;58212;47.034;7.376;2023-05-01T07:35:34;12.30;99.90
56374;DHT22;58212;47.034;7.376;2023-05-01T07:38:03;12.20;99.90
56374;DHT22;58212;47.034;7.376;2023-05-01T07:40:32;12.30;99.90
56374;DHT22;58212;47.034;7.376;2023-05-01T07:42:59;12.40;99.90
56374;DHT22;58212;47.034;7.376;2023-05-01T07:45:26;12.40;99.90
56374;DHT22;58212;47.034;7.376;2023-05-01T07:47:54;12.40;99.90
56374;DHT22;58212;47.034;7.376;2023-05-01T07:50:21;12.40;99.90
56374;DHT22;58212;47.034;7.376;2023-05-01T07:52:49;12.50;99.90
56374;DHT22;58212;47.034;7.376;2023-05-01T07:55:18;12.50;99.90
56374;DHT22;58212;47.034;7.376;2023-05-01T07:57:45;12.50;99.90
56374;DHT22;58212;47.034;7.376;2023-05-01T08:00:13;12.50;99.90
56374;DHT22;58212;47.034;7.376;2023-05-01T08:02:41;12.70;99.90
56374;DHT22;58212;47.034;7.376;2023-05-01T08:05:09;12.70;99.90
56374;DHT22;58212;47.034;7.376;2023-05-01T08:07:36;12.70;99.90
56374;DHT22;58212;47.034;7.376;2023-05-01T08:10:04;12.80;99.90
56374;DHT22;58212;47.034;7.376;2023-05-01T08:12:32;12.70;99.90
56374;DHT22;58212;47.034;7.376;2023-05-01T08:15:00;12.70;99.90
56374;DHT22;58212;47.034;7.376;2023-05-01T08:17:29;12.70;99.90
56374;DHT22;58212;47.034;7.376;2023-05-01T08:19:56;12.60;99.90
56374;DHT22;58212;47.034;7.376;2023-05-01T08:22:23;12.60;99.90
56374;DHT22;58212;47.034;7.376;2023-05-01T08:24:50;12.70;99.90
56374;DHT22;58212;47.034;7.376;2023-05-01T08:27:18;12.70;99.90
56374;DHT22;58212;47.034;7.376;2023-05-01T08:29:48;12.70;99.90
56374;DHT22;58212;47.034;7.376;2023-05-01T08:32:16;12.60;99.90
56374;DHT22;58212;47.034;7.376;2023-05-01T08:34:45;12.60;99.90
56374;DHT22;58212;47.034;7.376;2023-05-01T08:37:12;12.40;99.90
56374;DHT22;58212;47.034;7.376;2023-05-01T08:39:39;12.30;99.90
56374;DHT22;58212;47.034;7.376;2023-05-01T08:42:07;12.30;99.90
56374;DHT22;58212;47.034;7.376;2023-05-01T08:44:37;12.30;99.90
56374;DHT22;58212;47.034;7.376;2023-05-01T08:47:10;12.30;99.90
56374;DHT22;58212;47.034;7.376;2023-05-01T08:49:50;12.30;99.90
56374;DHT22;58212;47.034;7.376;2023-05-01T08:52:19;12.30;99.90
56374;DHT22;58212;47.034;7.376;2023-05-01T08:54:49;12.40;99.90
56374;DHT22;58212;47.034;7.376;2023-05-01T08:57:16;12.60;99.90
56374;DHT22;58212;47.034;7.376;2023-05-01T08:59:44;12.70;99.90
56374;DHT22;58212;47.034;7.376;2023-05-01T09:02:14;12.80;99.90
56374;DHT22;58212;47.034;7.376;2023-05-01T09:04:43;12.90;99.90
56374;DHT22;58212;47.034;7.376;2023-05-01T09:07:10;12.90;99.90
56374;DHT22;58212;47.034;7.376;2023-05-01T09:10:03;12.90;99.90
56374;DHT22;58212;47.034;7.376;2023-05-01T09:12:31;12.70;99.90
56374;DHT22;58212;47.034;7.376;2023-05-01T09:15:01;12.80;99.90
56374;DHT22;58212;47.034;7.376;2023-05-01T09:17:34;12.80;99.90
56374;DHT22;58212;47.034;7.376;2023-05-01T09:20:03;12.80;99.90
56374;DHT22;58212;47.034;7.376;2023-05-01T09:22:32;12.70;99.90
56374;DHT22;58212;47.034;7.376;2023-05-01T09:25:01;12.80;99.90
56374;DHT22;58212;47.034;7.376;2023-05-01T09:27:33;12.80;99.90
56374;DHT22;58212;47.034;7.376;2023-05-01T09:30:33;12.80;99.90
56374;DHT22;58212;47.034;7.376;2023-05-01T09:33:07;12.80;99.90
56374;DHT22;58212;47.034;7.376;2023-05-01T09:35:50;12.90;99.90
56374;DHT22;58212;47.034;7.376;2023-05-01T09:38:19;13.10;99.90
56374;DHT22;58212;47.034;7.376;2023-05-01T09:40:46;13.10;99.90
56374;DHT22;58212;47.034;7.376;2023-05-01T09:43:23;13.30;99.90
56374;DHT22;58212;47.034;7.376;2023-05-01T09:45:59;13.30;99.90
56374;DHT22;58212;47.034;7.376;2023-05-01T09:48:28;13.40;99.90
56374;DHT22;58212;47.034;7.376;2023-05-01T09:50:55;13.60;99.90
56374;DHT22;58212;47.034;7.376;2023-05-01T09:53:36;13.60;99.90
56374;DHT22;58212;47.034;7.376;2023-05-01T09:56:03;13.60;99.90
56374;DHT22;58212;47.034;7.376;2023-05-01T09:58:31;13.50;99.90
56374;DHT22;58212;47.034;7.376;2023-05-01T10:00:58;13.60;99.90
56374;DHT22;58212;47.034;7.376;2023-05-01T10:03:28;13.60;99.90
56374;DHT22;58212;47.034;7.376;2023-05-01T10:05:56;13.90;99.90
56374;DHT22;58212;47.034;7.376;2023-05-01T10:08:43;14.00;99.90
56374;DHT22;58212;47.034;7.376;2023-05-01T10:11:11;13.80;99.90
56374;DHT22;58212;47.034;7.376;2023-05-01T10:13:38;13.90;99.90
56374;DHT22;58212;47.034;7.376;2023-05-01T10:16:28;13.90;99.90
56374;DHT22;58212;47.034;7.376;2023-05-01T10:18:58;13.80;99.90
56374;DHT22;58212;47.034;7.376;2023-05-01T10:21:26;13.80;99.90
56374;DHT22;58212;47.034;7.376;2023-05-01T10:24:19;13.80;99.90
56374;DHT22;58212;47.034;7.376;2023-05-01T10:26:47;13.60;99.90
56374;DHT22;58212;47.034;7.376;2023-05-01T10:29:15;13.70;99.90
56374;DHT22;58212;47.034;7.376;2023-05-01T10:31:44;13.70;99.90
56374;DHT22;58212;47.034;7.376;2023-05-01T10:34:15;13.60;99.90
56374;DHT22;58212;47.034;7.376;2023-05-01T10:36:48;13.60;99.90
56374;DHT22;58212;47.034;7.376;2023-05-01T10:39:28;13.40;99.90
56374;DHT22;58212;47.034;7.376;2023-05-01T10:42:02;13.30;99.90
56374;DHT22;58212;47.034;7.376;2023-05-01T10:45:26;13.30;99.90
56374;DHT22;58212;47.034;7.376;2023-05-01T10:47:55;13.40;99.90
56374;DHT22;58212;47.034;7.376;2023-05-01T10:50:24;13.40;99.90
56374;DHT22;58212;47.034;7.376;2023-05-01T10:53:16;13.40;99.90
56374;DHT22;58212;47.034;7.376;2023-05-01T10:55:44;13.20;99.90
56374;DHT22;58212;47.034;7.376;2023-05-01T10:58:12;13.30;99.90
56374;DHT22;58212;47.034;7.376;2023-05-01T11:00:40;13.20;99.90
56374;DHT22;58212;47.034;7.376;2023-05-01T11:03:35;13.30;99.90
56374;DHT22;58212;47.034;7.376;2023-05-01T11:06:07;13.30;99.90
56374;DHT22;58212;47.034;7.376;2023-05-01T11:08:35;13.30;99.90
56374;DHT22;58212;47.034;7.376;2023-05-01T11:15:00;13.20;99.90
56374;DHT22;58212;47.034;7.376;2023-05-01T11:17:44;13.30;99.90
56374;DHT22;58212;47.034;7.376;2023-05-01T11:20:46;13.40;99.90
56374;DHT22;58212;47.034;7.376;2023-05-01T11:23:28;13.40;99.90
56374;DHT22;58212;47.034;7.376;2023-05-01T11:26:02;13.30;99.90
56374;DHT22;58212;47.034;7.376;2023-05-01T11:28:41;13.20;99.90
56374;DHT22;58212;47.034;7.376;2023-05-01T11:31:16;13.10;99.90
56374;DHT22;58212;47.034;7.376;2023-05-01T11:33:43;13.20;99.90
56374;DHT22;58212;47.034;7.376;2023-05-01T11:36:12;13.30;99.90
56374;DHT22;58212;47.034;7.376;2023-05-01T11:38:49;13.30;99.90
56374;DHT22;58212;47.034;7.376;2023-05-01T11:41:41;13.30;99.90
56374;DHT22;58212;47.034;7.376;2023-05-01T11:44:11;13.20;99.90
56374;DHT22;58212;47.034;7.376;2023-05-01T11:46:38;13.20;99.90
56374;DHT22;58212;47.034;7.376;2023-05-01T11:49:06;13.30;99.90
56374;DHT22;58212;47.034;7.376;2023-05-01T11:51:35;13.40;99.90
56374;DHT22;58212;47.034;7.376;2023-05-01T11:54:05;13.40;99.90
56374;DHT22;58212;47.034;7.376;2023-05-01T11:56:33;13.40;99.90
56374;DHT22;58212;47.034;7.376;2023-05-01T11:59:09;13.30;99.90
56374;DHT22;58212;47.034;7.376;2023-05-01T12:01:39;13.40;99.90
56374;DHT22;58212;47.034;7.376;2023-05-01T12:04:07;13.40;99.90
56374;DHT22;58212;47.034;7.376;2023-05-01T12:06:37;13.50;99.90
56374;DHT22;58212;47.034;7.376;2023-05-01T12:09:09;13.60;99.90
56374;DHT22;58212;47.034;7.376;2023-05-01T12:11:38;13.60;99.90
56374;DHT22;58212;47.034;7.376;2023-05-01T12:14:06;13.50;99.90
56374;DHT22;58212;47.034;7.376;2023-05-01T12:16:35;13.50;99.90
56374;DHT22;58212;47.034;7.376;2023-05-01T12:19:03;13.40;99.90
56374;DHT22;58212;47.034;7.376;2023-05-01T12:22:09;13.40;99.90
56374;DHT22;58212;47.034;7.376;2023-05-01T12:24:36;13.50;99.90
56374;DHT22;58212;47.034;7.376;2023-05-01T12:27:03;13.50;99.90
56374;DHT22;58212;47.034;7.376;2023-05-01T12:29:38;13.40;99.90
56374;DHT22;58212;47.034;7.376;2023-05-01T12:32:07;13.00;99.90
56374;DHT22;58212;47.034;7.376;2023-05-01T12:34:35;13.20;99.90
56374;DHT22;58212;47.034;7.376;2023-05-01T12:37:03;13.10;99.90
56374;DHT22;58212;47.034;7.376;2023-05-01T12:39:37;12.90;99.90
56374;DHT22;58212;47.034;7.376;2023-05-01T12:42:11;13.20;99.90
56374;DHT22;58212;47.034;7.376;2023-05-01T12:44:39;13.30;99.90
56374;DHT22;58212;47.034;7.376;2023-05-01T12:47:07;13.50;99.90
56374;DHT22;58212;47.034;7.376;2023-05-01T12:49:35;13.60;99.90
56374;DHT22;58212;47.034;7.376;2023-05-01T12:52:05;13.00;99.90
56374;DHT22;58212;47.034;7.376;2023-05-01T12:54:33;13.40;99.90
56374;DHT22;58212;47.034;7.376;2023-05-01T12:57:08;13.40;99.90
56374;DHT22;58212;47.034;7.376;2023-05-01T12:59:36;13.40;99.90
56374;DHT22;58212;47.034;7.376;2023-05-01T13:02:05;13.50;99.90
56374;DHT22;58212;47.034;7.376;2023-05-01T13:04:33;13.50;99.90
56374;DHT22;58212;47.034;7.376;2023-05-01T13:07:01;13.40;99.90
56374;DHT22;58212;47.034;7.376;2023-05-01T13:09:50;13.20;99.90
56374;DHT22;58212;47.034;7.376;2023-05-01T13:12:20;13.40;99.90
56374;DHT22;58212;47.034;7.376;2023-05-01T13:14:47;13.40;99.90
56374;DHT22;58212;47.034;7.376;2023-05-01T13:17:22;13.30;99.90
56374;DHT22;58212;47.034;7.376;2023-05-01T13:19:52;13.10;99.90
56374;DHT22;58212;47.034;7.376;2023-05-01T13:22:28;13.00;99.90
56374;DHT22;58212;47.034;7.376;2023-05-01T13:24:55;12.80;99.90
56374;DHT22;58212;47.034;7.376;2023-05-01T13:27:23;12.90;99.90
56374;DHT22;58212;47.034;7.376;2023-05-01T13:29:52;12.90;99.90
56374;DHT22;58212;47.034;7.376;2023-05-01T13:32:23;12.90;99.90
56374;DHT22;58212;47.034;7.376;2023-05-01T13:34:51;12.90;99.90
56374;DHT22;58212;47.034;7.376;2023-05-01T13:37:19;13.20;99.90
56374;DHT22;58212;47.034;7.376;2023-05-01T13:39:47;13.50;99.90
56374;DHT22;58212;47.034;7.376;2023-05-01T13:42:21;13.50;99.90
56374;DHT22;58212;47.034;7.376;2023-05-01T13:44:53;13.50;99.90
56374;DHT22;58212;47.034;7.376;2023-05-01T13:47:51;13.40;99.90
56374;DHT22;58212;47.034;7.376;2023-05-01T13:50:21;13.40;99.90
56374;DHT22;58212;47.034;7.376;2023-05-01T13:52:48;13.40;99.90
56374;DHT22;58212;47.034;7.376;2023-05-01T13:55:20;13.40;99.90
56374;DHT22;58212;47.034;7.376;2023-05-01T13:57:48;13.40;99.90
56374;DHT22;58212;47.034;7.376;2023-05-01T14:00:18;13.50;99.90
56374;DHT22;58212;47.034;7.376;2023-05-01T14:02:51;13.60;99.90
56374;DHT22;58212;47.034;7.376;2023-05-01T14:05:25;13.70;99.90
56374;DHT22;58212;47.034;7.376;2023-05-01T14:07:55;13.80;99.90
56374;DHT22;58212;47.034;7.376;2023-05-01T14:10:25;13.70;99.90
56374;DHT22;58212;47.034;7.376;2023-05-01T14:12:54;13.80;99.90
56374;DHT22;58212;47.034;7.376;2023-05-01T14:15:22;14.10;99.90
56374;DHT22;58212;47.034;7.376;2023-05-01T14:17:50;14.20;99.90
56374;DHT22;58212;47.034;7.376;2023-05-01T14:20:17;14.30;99.90
56374;DHT22;58212;47.034;7.376;2023-05-01T14:22:47;14.30;99.90
56374;DHT22;58212;47.034;7.376;2023-05-01T14:25:22;14.30;99.90
56374;DHT22;58212;47.034;7.376;2023-05-01T14:27:51;14.30;99.90
56374;DHT22;58212;47.034;7.376;2023-05-01T14:30:26;14.30;99.90
56374;DHT22;58212;47.034;7.376;2023-05-01T14:32:53;14.30;99.90
56374;DHT22;58212;47.034;7.376;2023-05-01T14:35:22;14.40;99.90
56374;DHT22;58212;47.034;7.376;2023-05-01T14:37:50;14.20;99.90
56374;DHT22;58212;47.034;7.376;2023-05-01T14:40:18;14.20;99.90
56374;DHT22;58212;47.034;7.376;2023-05-01T14:42:53;14.20;99.90
56374;DHT22;58212;47.034;7.376;2023-05-01T14:45:20;14.30;99.90
56374;DHT22;58212;47.034;7.376;2023-05-01T14:47:49;14.30;99.90
56374;DHT22;58212;47.034;7.376;2023-05-01T14:50:19;14.40;99.90
56374;DHT22;58212;47.034;7.376;2023-05-01T14:52:50;14.40;99.90
56374;DHT22;58212;47.034;7.376;2023-05-01T14:55:22;14.50;99.90
56374;DHT22;58212;47.034;7.376;2023-05-01T14:57:51;14.50;99.90
56374;DHT22;58212;47.034;7.376;2023-05-01T15:00:17;14.40;99.90
56374;DHT22;58212;47.034;7.376;2023-05-01T15:02:45;14.40;99.90
56374;DHT22;58212;47.034;7.376;2023-05-01T15:05:14;14.10;99.90
56374;DHT22;58212;47.034;7.376;2023-05-01T15:07:42;14.30;99.90
56374;DHT22;58212;47.034;7.376;2023-05-01T15:10:09;14.30;99.90
56374;DHT22;58212;47.034;7.376;2023-05-01T15:12:36;14.20;99.90
56374;DHT22;58212;47.034;7.376;2023-05-01T15:15:04;14.10;99.90
56374;DHT22;58212;47.034;7.376;2023-05-01T15:17:36;14.20;99.90
56374;DHT22;58212;47.034;7.376;2023-05-01T15:20:05;14.10;99.90
56374;DHT22;58212;47.034;7.376;2023-05-01T15:22:33;14.00;99.90
56374;DHT22;58212;47.034;7.376;2023-05-01T15:25:00;13.90;99.90
56374;DHT22;58212;47.034;7.376;2023-05-01T15:27:30;13.60;99.90
56374;DHT22;58212;47.034;7.376;2023-05-01T15:29:57;13.60;99.90
56374;DHT22;58212;47.034;7.376;2023-05-01T15:32:25;13.60;99.90
56374;DHT22;58212;47.034;7.376;2023-05-01T15:34:52;13.50;99.90
56374;DHT22;58212;47.034;7.376;2023-05-01T15:37:21;13.60;99.90
56374;DHT22;58212;47.034;7.376;2023-05-01T15:39:50;13.50;99.90
56374;DHT22;58212;47.034;7.376;2023-05-01T15:42:19;13.40;99.90
56374;DHT22;58212;47.034;7.376;2023-05-01T15:44:46;13.30;99.90
56374;DHT22;58212;47.034;7.376;2023-05-01T15:47:13;13.20;99.90
56374;DHT22;58212;47.034;7.376;2023-05-01T15:49:40;12.90;99.90
56374;DHT22;58212;47.034;7.376;2023-05-01T15:52:32;12.80;99.90
56374;DHT22;58212;47.034;7.376;2023-05-01T15:55:01;12.70;99.90
56374;DHT22;58212;47.034;7.376;2023-05-01T15:57:54;12.60;99.90
56374;DHT22;58212;47.034;7.376;2023-05-01T16:00:21;12.60;99.90
56374;DHT22;58212;47.034;7.376;2023-05-01T16:02:48;12.50;99.90
56374;DHT22;58212;47.034;7.376;2023-05-01T16:05:18;12.40;99.90